Time;durP1;ratioP1;P1;durP2;ratioP2;P2;SDS_P1;SDS_P2;PMS_P1;PMS_P2;Temp;Humidity;BMP_temperature;BMP_pressure;BME280_temperature;BME280_humidity;BME280_pressure;Samples;Min_cycle;Max_cycle;Signal;HPM_P1;HPM_P2
2022/10/27 00:02:09;;;;;;;14.68;7.60;;;;;;;;;;5101921;28;20035;-68
2022/10/27 00:04:35;;;;;;;18.10;8.52;;;;;;;;;;5094492;27;20059;-68
2022/10/27 00:07:01;;;;;;;16.02;8.43;;;;;;;;;;5098940;27;20058;-67
2022/10/27 00:09:27;;;;;;;18.58;7.97;;;;;;;;;;5080542;27;20055;-69
2022/10/27 00:11:55;;;;;;;13.98;8.27;;;;;;;;;;5097012;27;20047;-67
2022/10/27 00:14:21;;;;;;;18.85;8.07;;;;;;;;;;5095170;27;20062;-67
2022/10/27 00:16:53;;;;;;;15.60;7.78;;;;;;;;;;5095093;28;20060;-68
2022/10/27 00:19:20;;;;;;;13.02;7.88;;;;;;;;;;5097985;28;20047;-67
2022/10/27 00:21:46;;;;;;;18.80;8.75;;;;;;;;;;5100148;28;20409;-67
2022/10/27 00:24:12;;;;;;;14.15;8.35;;;;;;;;;;5098166;28;20035;-68
2022/10/27 00:26:38;;;;;;;16.92;9.00;;;;;;;;;;5092616;27;20040;-69
2022/10/27 00:29:04;;;;;;;19.58;9.90;;;;;;;;;;5095824;28;20048;-67
2022/10/27 00:31:30;;;;;;;19.10;9.60;;;;;;;;;;5098806;27;20506;-67
2022/10/27 00:33:56;;;;;;;16.70;10.75;;;;;;;;;;5095608;28;20039;-68
2022/10/27 00:36:23;;;;;;;18.40;10.55;;;;;;;;;;5097393;27;20147;-68
2022/10/27 00:38:49;;;;;;;18.17;9.60;;;;;;;;;;5096749;27;20044;-68
2022/10/27 00:41:29;;;;;;;18.90;10.68;;;;;;;;;;5100628;28;20061;-68
2022/10/27 00:43:55;;;;;;;22.17;10.70;;;;;;;;;;5095642;28;20042;-68
2022/10/27 00:46:40;;;;;;;18.52;10.70;;;;;;;;;;5093859;28;21104;-68
2022/10/27 00:49:13;;;;;;;19.30;10.55;;;;;;;;;;5090106;28;20059;-68
2022/10/27 00:51:42;;;;;;;21.40;11.13;;;;;;;;;;5089403;27;20052;-68
2022/10/27 00:54:09;;;;;;;17.80;10.82;;;;;;;;;;5092503;27;20048;-68
2022/10/27 00:56:36;;;;;;;21.90;10.63;;;;;;;;;;5092040;28;20132;-67
2022/10/27 00:59:02;;;;;;;19.90;11.13;;;;;;;;;;5096853;28;20048;-67
2022/10/27 01:01:28;;;;;;;18.58;10.70;;;;;;;;;;5093132;27;20047;-67
2022/10/27 01:03:54;;;;;;;17.23;10.85;;;;;;;;;;5093493;27;20047;-68
2022/10/27 01:06:20;;;;;;;17.60;10.57;;;;;;;;;;5088476;28;20036;-68
2022/10/27 01:08:47;;;;;;;22.10;11.32;;;;;;;;;;5094183;28;20074;-68
2022/10/27 01:11:13;;;;;;;22.67;11.93;;;;;;;;;;5096195;28;20093;-68
2022/10/27 01:13:39;;;;;;;20.88;11.65;;;;;;;;;;5096803;27;20036;-67
2022/10/27 01:16:05;;;;;;;21.38;12.02;;;;;;;;;;5093098;28;20068;-68
2022/10/27 01:18:41;;;;;;;19.52;12.25;;;;;;;;;;5099179;27;20039;-68
2022/10/27 01:21:26;;;;;;;18.52;11.35;;;;;;;;;;5092872;27;20046;-68
2022/10/27 01:23:55;;;;;;;24.33;12.40;;;;;;;;;;5100397;27;20051;-68
2022/10/27 01:26:40;;;;;;;23.60;12.02;;;;;;;;;;5091505;27;20123;-67
2022/10/27 01:29:25;;;;;;;25.35;12.18;;;;;;;;;;5090938;27;20075;-68
2022/10/27 01:31:54;;;;;;;17.23;10.88;;;;;;;;;;5094440;28;20047;-68
2022/10/27 01:34:29;;;;;;;20.25;11.73;;;;;;;;;;5092037;27;20531;-68
2022/10/27 01:37:01;;;;;;;21.63;11.52;;;;;;;;;;5081922;28;20075;-67
2022/10/27 01:39:30;;;;;;;20.58;11.43;;;;;;;;;;5099665;27;20054;-68
2022/10/27 01:42:11;;;;;;;14.93;10.43;;;;;;;;;;5094499;28;20040;-68
2022/10/27 01:44:41;;;;;;;18.27;11.07;;;;;;;;;;5089787;27;20605;-68
2022/10/27 01:47:07;;;;;;;19.83;11.85;;;;;;;;;;5096022;28;20048;-69
2022/10/27 01:49:34;;;;;;;21.20;11.68;;;;;;;;;;5098587;27;20046;-68
2022/10/27 01:52:07;;;;;;;17.67;11.60;;;;;;;;;;5097542;28;20054;-67
2022/10/27 01:54:34;;;;;;;19.73;11.35;;;;;;;;;;5089822;28;20142;-68
2022/10/27 01:57:16;;;;;;;16.80;9.65;;;;;;;;;;5093481;28;20042;-68
2022/10/27 01:59:51;;;;;;;19.23;10.98;;;;;;;;;;5095396;27;20047;-68
2022/10/27 02:02:30;;;;;;;21.17;11.85;;;;;;;;;;5091309;27;20062;-68
2022/10/27 02:05:03;;;;;;;22.83;11.35;;;;;;;;;;5096694;27;20163;-68
2022/10/27 02:07:29;;;;;;;23.52;12.23;;;;;;;;;;5093773;27;20102;-68
2022/10/27 02:09:59;;;;;;;25.58;12.38;;;;;;;;;;5083257;28;20071;-68
2022/10/27 02:12:30;;;;;;;22.13;12.65;;;;;;;;;;5090106;27;20040;-68
2022/10/27 02:14:57;;;;;;;24.95;12.73;;;;;;;;;;5091789;28;20056;-68
2022/10/27 02:17:26;;;;;;;23.60;12.20;;;;;;;;;;5091152;27;20044;-67
2022/10/27 02:19:53;;;;;;;28.35;11.52;;;;;;;;;;5089591;28;20048;-68
2022/10/27 02:22:20;;;;;;;19.25;10.63;;;;;;;;;;5092908;28;20092;-68
2022/10/27 02:24:46;;;;;;;20.45;11.15;;;;;;;;;;5099828;28;20071;-68
2022/10/27 02:27:23;;;;;;;17.88;10.50;;;;;;;;;;5108303;28;20089;-68
2022/10/27 02:29:53;;;;;;;18.65;10.43;;;;;;;;;;5110637;27;20055;-68
2022/10/27 02:32:20;;;;;;;18.88;9.90;;;;;;;;;;5099252;28;20043;-68
2022/10/27 02:34:47;;;;;;;29.27;9.90;;;;;;;;;;5090625;28;20067;-68
2022/10/27 02:37:39;;;;;;;19.73;9.30;;;;;;;;;;5089823;27;20044;-68
2022/10/27 02:40:06;;;;;;;16.55;8.75;;;;;;;;;;5103191;27;20129;-68
2022/10/27 02:42:32;;;;;;;19.55;8.93;;;;;;;;;;5087300;28;20036;-67
2022/10/27 02:44:58;;;;;;;16.00;9.48;;;;;;;;;;5086283;28;20598;-69
2022/10/27 02:47:24;;;;;;;17.02;9.85;;;;;;;;;;5089763;28;20047;-69
2022/10/27 02:49:50;;;;;;;21.27;9.90;;;;;;;;;;5087694;28;20059;-69
2022/10/27 02:52:16;;;;;;;21.13;9.60;;;;;;;;;;5085444;28;20757;-69
2022/10/27 02:54:47;;;;;;;14.85;8.93;;;;;;;;;;5089555;28;20166;-69
2022/10/27 02:57:14;;;;;;;19.20;9.52;;;;;;;;;;5092707;28;21031;-68
2022/10/27 02:59:40;;;;;;;19.38;9.70;;;;;;;;;;5090218;28;20040;-69
2022/10/27 03:02:06;;;;;;;18.42;10.13;;;;;;;;;;5089717;28;20044;-70
2022/10/27 03:04:32;;;;;;;17.88;9.32;;;;;;;;;;5089463;28;20051;-70
2022/10/27 03:06:58;;;;;;;17.65;10.13;;;;;;;;;;5098734;28;20043;-69
2022/10/27 03:09:24;;;;;;;18.85;10.52;;;;;;;;;;5098290;27;20085;-69
2022/10/27 03:11:50;;;;;;;16.60;10.10;;;;;;;;;;5097721;27;20044;-70
2022/10/27 03:14:16;;;;;;;19.35;10.32;;;;;;;;;;5081287;28;20585;-69
2022/10/27 03:16:42;;;;;;;22.98;10.25;;;;;;;;;;5099917;27;20048;-69
2022/10/27 03:19:08;;;;;;;20.63;10.68;;;;;;;;;;5097940;27;20036;-69
2022/10/27 03:21:34;;;;;;;19.00;9.57;;;;;;;;;;5098712;27;20066;-70
2022/10/27 03:24:00;;;;;;;15.18;9.98;;;;;;;;;;5103851;27;20051;-71
2022/10/27 03:26:26;;;;;;;20.05;9.77;;;;;;;;;;5098133;28;20082;-69
2022/10/27 03:28:51;;;;;;;16.63;9.50;;;;;;;;;;5092767;27;20695;-69
2022/10/27 03:31:17;;;;;;;19.45;8.68;;;;;;;;;;5084162;28;20044;-69
2022/10/27 03:33:43;;;;;;;20.05;9.70;;;;;;;;;;5094479;27;20476;-69
2022/10/27 03:36:10;;;;;;;14.40;8.50;;;;;;;;;;5100559;27;20048;-69
2022/10/27 03:38:36;;;;;;;22.45;9.23;;;;;;;;;;5096374;27;20040;-69
2022/10/27 03:41:03;;;;;;;18.13;10.70;;;;;;;;;;5100611;27;20435;-69
2022/10/27 03:43:29;;;;;;;15.52;8.85;;;;;;;;;;5099640;27;20394;-69
2022/10/27 03:45:55;;;;;;;14.18;9.20;;;;;;;;;;5096261;27;20044;-68
2022/10/27 03:48:20;;;;;;;19.35;9.18;;;;;;;;;;5094663;28;20162;-68
2022/10/27 03:50:48;;;;;;;16.77;8.90;;;;;;;;;;5098897;27;20062;-68
2022/10/27 03:53:14;;;;;;;20.20;9.30;;;;;;;;;;5098745;28;20394;-69
2022/10/27 03:55:40;;;;;;;15.55;9.18;;;;;;;;;;5094306;27;20047;-73
2022/10/27 03:58:06;;;;;;;10.38;7.90;;;;;;;;;;5094802;28;20040;-68
2022/10/27 04:00:32;;;;;;;18.75;9.23;;;;;;;;;;5094010;28;20081;-69
2022/10/27 04:02:58;;;;;;;17.25;8.70;;;;;;;;;;5099354;28;20432;-69
2022/10/27 04:05:25;;;;;;;15.70;9.18;;;;;;;;;;5103450;27;20044;-69
2022/10/27 04:07:51;;;;;;;17.73;9.35;;;;;;;;;;5114389;27;20101;-69
2022/10/27 04:10:17;;;;;;;16.35;9.52;;;;;;;;;;5098990;28;20043;-69
2022/10/27 04:12:57;;;;;;;13.57;8.68;;;;;;;;;;5104556;27;20055;-70
2022/10/27 04:15:24;;;;;;;16.35;9.02;;;;;;;;;;5094191;28;20040;-68
2022/10/27 04:17:52;;;;;;;22.35;10.32;;;;;;;;;;5100208;28;20047;-69
2022/10/27 04:20:18;;;;;;;22.63;9.70;;;;;;;;;;5096916;28;20490;-69
2022/10/27 04:22:44;;;;;;;15.38;8.23;;;;;;;;;;5096701;27;20046;-69
2022/10/27 04:25:10;;;;;;;13.55;8.32;;;;;;;;;;5081789;28;20097;-69
2022/10/27 04:27:36;;;;;;;23.33;9.98;;;;;;;;;;5093754;28;20035;-69
2022/10/27 04:30:02;;;;;;;19.55;7.55;;;;;;;;;;5098039;27;20047;-69
2022/10/27 04:32:28;;;;;;;12.77;8.68;;;;;;;;;;5094490;28;20100;-70
2022/10/27 04:34:54;;;;;;;16.15;8.70;;;;;;;;;;5100161;27;20048;-68
2022/10/27 04:37:20;;;;;;;11.90;8.27;;;;;;;;;;5100909;27;20111;-69
2022/10/27 04:39:46;;;;;;;17.08;10.32;;;;;;;;;;5101546;27;20059;-71
2022/10/27 04:42:12;;;;;;;15.25;10.13;;;;;;;;;;5093505;28;20040;-69
2022/10/27 04:44:38;;;;;;;20.35;9.68;;;;;;;;;;5078379;28;21952;-69
2022/10/27 04:47:04;;;;;;;19.48;10.00;;;;;;;;;;5100609;28;20109;-69
2022/10/27 04:49:30;;;;;;;12.27;8.95;;;;;;;;;;5099505;27;20040;-68
2022/10/27 04:51:56;;;;;;;20.20;9.43;;;;;;;;;;5098419;28;20048;-68
2022/10/27 04:54:22;;;;;;;10.88;9.25;;;;;;;;;;5103460;27;20047;-68
2022/10/27 04:56:49;;;;;;;17.13;8.88;;;;;;;;;;5099752;27;22309;-69
2022/10/27 04:59:15;;;;;;;17.33;8.20;;;;;;;;;;5098003;27;20040;-69
2022/10/27 05:01:41;;;;;;;23.67;8.32;;;;;;;;;;5100641;27;20039;-69
2022/10/27 05:04:07;;;;;;;13.27;8.20;;;;;;;;;;5100045;27;20921;-68
2022/10/27 05:06:33;;;;;;;13.75;9.30;;;;;;;;;;5094310;28;20044;-68
2022/10/27 05:08:59;;;;;;;18.05;10.10;;;;;;;;;;5096615;27;20044;-69
2022/10/27 05:11:25;;;;;;;17.40;9.98;;;;;;;;;;5076125;27;20048;-67
2022/10/27 05:13:51;;;;;;;12.95;8.57;;;;;;;;;;5096124;27;20121;-68
2022/10/27 05:16:17;;;;;;;14.52;9.43;;;;;;;;;;5089137;27;20502;-67
2022/10/27 05:18:43;;;;;;;13.68;10.35;;;;;;;;;;5078031;28;20799;-68
2022/10/27 05:21:10;;;;;;;14.50;10.70;;;;;;;;;;5106774;27;20048;-68
2022/10/27 05:23:36;;;;;;;16.42;11.10;;;;;;;;;;5109416;27;20044;-69
2022/10/27 05:26:02;;;;;;;14.55;10.15;;;;;;;;;;5103875;28;20135;-69
2022/10/27 05:28:28;;;;;;;19.25;11.07;;;;;;;;;;5104619;27;20155;-69
2022/10/27 05:30:58;;;;;;;15.50;11.10;;;;;;;;;;5106276;27;20044;-69
2022/10/27 05:33:24;;;;;;;14.95;10.13;;;;;;;;;;5110490;27;20066;-68
2022/10/27 05:35:50;;;;;;;17.50;11.18;;;;;;;;;;5087187;28;20138;-68
2022/10/27 05:38:17;;;;;;;17.90;10.57;;;;;;;;;;5094879;28;20126;-68
2022/10/27 05:40:42;;;;;;;16.67;9.80;;;;;;;;;;5088742;28;20051;-68
2022/10/27 05:43:09;;;;;;;18.90;11.32;;;;;;;;;;5108696;28;20130;-69
2022/10/27 05:45:35;;;;;;;15.52;10.77;;;;;;;;;;5110295;27;20051;-68
2022/10/27 05:48:05;;;;;;;18.73;11.13;;;;;;;;;;5094108;28;20950;-68
2022/10/27 05:50:32;;;;;;;26.63;13.30;;;;;;;;;;5090715;28;20105;-69
2022/10/27 05:52:58;;;;;;;23.08;15.00;;;;;;;;;;5094315;28;20418;-70
2022/10/27 05:55:24;;;;;;;22.58;13.55;;;;;;;;;;5091156;27;20052;-69
2022/10/27 05:57:54;;;;;;;24.90;14.70;;;;;;;;;;5094683;27;20055;-68
2022/10/27 06:00:21;;;;;;;25.15;14.10;;;;;;;;;;5097479;28;20047;-68
2022/10/27 06:02:47;;;;;;;24.40;15.02;;;;;;;;;;5111960;27;20073;-70
2022/10/27 06:05:13;;;;;;;23.80;14.77;;;;;;;;;;5097645;27;20044;-70
2022/10/27 06:07:39;;;;;;;20.42;14.85;;;;;;;;;;5096728;27;20044;-70
2022/10/27 06:10:05;;;;;;;25.05;16.33;;;;;;;;;;5099965;27;20081;-68
2022/10/27 06:12:31;;;;;;;28.65;16.45;;;;;;;;;;5094522;28;20529;-70
2022/10/27 06:14:57;;;;;;;25.05;16.23;;;;;;;;;;5096094;28;20080;-69
2022/10/27 06:17:23;;;;;;;24.23;15.65;;;;;;;;;;5098847;27;20044;-69
2022/10/27 06:19:49;;;;;;;24.85;16.30;;;;;;;;;;5104866;27;20490;-68
2022/10/27 06:22:15;;;;;;;25.73;15.90;;;;;;;;;;5092590;28;20043;-68
2022/10/27 06:24:41;;;;;;;24.15;15.35;;;;;;;;;;5094410;28;20054;-68
2022/10/27 06:27:07;;;;;;;26.45;15.65;;;;;;;;;;5099313;27;20048;-68
2022/10/27 06:29:33;;;;;;;21.33;14.30;;;;;;;;;;5095874;28;20044;-68
2022/10/27 06:31:59;;;;;;;26.70;15.85;;;;;;;;;;5091644;28;20482;-68
2022/10/27 06:34:25;;;;;;;25.23;15.68;;;;;;;;;;5095140;28;20090;-68
2022/10/27 06:36:51;;;;;;;22.92;14.80;;;;;;;;;;5107278;27;20035;-68
2022/10/27 06:39:16;;;;;;;23.08;14.20;;;;;;;;;;5101090;28;20039;-68
2022/10/27 06:41:42;;;;;;;24.15;14.93;;;;;;;;;;5101716;27;20044;-68
2022/10/27 06:44:08;;;;;;;20.80;14.32;;;;;;;;;;5097481;28;20040;-68
2022/10/27 06:46:35;;;;;;;24.92;14.40;;;;;;;;;;5098747;28;20486;-68
2022/10/27 06:49:01;;;;;;;28.52;14.55;;;;;;;;;;5100910;28;20059;-68
2022/10/27 06:51:27;;;;;;;22.60;14.20;;;;;;;;;;5097995;28;20043;-69
2022/10/27 06:53:53;;;;;;;25.73;14.23;;;;;;;;;;5095418;28;20043;-68
2022/10/27 06:56:20;;;;;;;21.77;13.63;;;;;;;;;;5093411;28;20050;-68
2022/10/27 06:58:49;;;;;;;22.48;14.05;;;;;;;;;;5101611;28;20047;-68
2022/10/27 07:01:15;;;;;;;19.55;12.60;;;;;;;;;;5099347;28;20050;-70
2022/10/27 07:03:41;;;;;;;26.92;13.73;;;;;;;;;;5101070;28;20130;-70
2022/10/27 07:06:07;;;;;;;22.90;13.15;;;;;;;;;;5094802;28;20134;-68
2022/10/27 07:08:33;;;;;;;23.67;13.55;;;;;;;;;;5104194;28;20052;-68
2022/10/27 07:10:59;;;;;;;20.85;12.90;;;;;;;;;;5102786;28;20044;-68
2022/10/27 07:13:25;;;;;;;22.77;13.25;;;;;;;;;;5095287;28;20126;-68
2022/10/27 07:15:51;;;;;;;25.52;13.63;;;;;;;;;;5100456;28;20699;-70
2022/10/27 07:18:17;;;;;;;30.40;13.50;;;;;;;;;;5090463;28;20417;-69
2022/10/27 07:20:44;;;;;;;23.08;13.70;;;;;;;;;;5102693;28;20104;-68
2022/10/27 07:23:11;;;;;;;25.80;13.10;;;;;;;;;;5113184;28;20044;-68
2022/10/27 07:25:37;;;;;;;23.95;13.65;;;;;;;;;;5110916;28;20097;-68
2022/10/27 07:28:05;;;;;;;20.25;12.65;;;;;;;;;;5098328;28;20055;-68
2022/10/27 07:30:38;;;;;;;25.30;13.13;;;;;;;;;;5105433;28;20048;-68
2022/10/27 07:33:04;;;;;;;22.92;12.95;;;;;;;;;;5102500;28;20074;-69
2022/10/27 07:35:31;;;;;;;22.73;12.82;;;;;;;;;;5111480;28;20079;-69
2022/10/27 07:37:57;;;;;;;24.40;13.45;;;;;;;;;;5110947;28;20040;-68
2022/10/27 07:40:24;;;;;;;27.70;12.63;;;;;;;;;;5110211;28;20039;-68
2022/10/27 07:42:51;;;;;;;22.60;13.52;;;;;;;;;;5116105;28;20642;-68
2022/10/27 07:45:19;;;;;;;22.25;12.55;;;;;;;;;;5125687;28;20054;-68
2022/10/27 07:47:46;;;;;;;25.27;12.90;;;;;;;;;;5108794;28;20077;-68
2022/10/27 07:50:12;;;;;;;23.33;12.75;;;;;;;;;;5114013;28;20503;-68
2022/10/27 07:52:42;;;;;;;22.80;12.35;;;;;;;;;;5099901;28;20590;-68
2022/10/27 07:55:08;;;;;;;21.67;11.68;;;;;;;;;;5107878;28;20070;-70
2022/10/27 07:57:34;;;;;;;22.52;12.32;;;;;;;;;;5110186;27;20050;-70
2022/10/27 08:00:00;;;;;;;21.83;11.38;;;;;;;;;;5119907;27;20051;-68
2022/10/27 08:02:26;;;;;;;20.45;11.07;;;;;;;;;;5105682;28;20071;-69
2022/10/27 08:04:53;;;;;;;24.55;11.70;;;;;;;;;;5110061;28;20056;-68
2022/10/27 08:07:19;;;;;;;20.27;11.32;;;;;;;;;;5114911;27;20048;-68
2022/10/27 08:09:45;;;;;;;23.80;11.43;;;;;;;;;;5105546;27;20050;-68
2022/10/27 08:12:11;;;;;;;18.83;10.90;;;;;;;;;;5121795;27;20051;-68
2022/10/27 08:14:37;;;;;;;18.20;10.93;;;;;;;;;;5112563;27;20126;-69
2022/10/27 08:17:03;;;;;;;16.73;9.88;;;;;;;;;;5126128;27;20047;-68
2022/10/27 08:19:29;;;;;;;18.73;10.10;;;;;;;;;;5123224;27;20489;-68
2022/10/27 08:21:55;;;;;;;21.58;10.40;;;;;;;;;;5122437;27;20054;-69
2022/10/27 08:24:21;;;;;;;21.08;10.05;;;;;;;;;;5113186;27;20051;-70
2022/10/27 08:26:47;;;;;;;22.85;10.23;;;;;;;;;;5095053;28;20143;-69
2022/10/27 08:29:13;;;;;;;17.52;8.93;;;;;;;;;;5123878;27;20055;-69
2022/10/27 08:31:39;;;;;;;16.33;8.75;;;;;;;;;;5107081;27;20047;-68
2022/10/27 08:34:05;;;;;;;18.83;8.75;;;;;;;;;;5109717;28;20044;-69
2022/10/27 08:36:37;;;;;;;16.30;8.77;;;;;;;;;;5105765;27;20059;-70
2022/10/27 08:39:03;;;;;;;;;;;;;;;;;;5112266;28;20552;-70
2022/10/27 08:41:41;;;;;;;14.73;8.60;;;;;;;;;;5110533;27;19916;-68
2022/10/27 08:44:21;;;;;;;12.68;8.10;;;;;;;;;;5124921;27;20039;-72
2022/10/27 08:46:52;;;;;;;13.18;7.78;;;;;;;;;;5107820;28;20052;-68
2022/10/27 08:49:21;;;;;;;14.95;8.73;;;;;;;;;;5106476;28;20065;-69
2022/10/27 08:51:48;;;;;;;12.32;7.68;;;;;;;;;;5112778;27;20078;-69
2022/10/27 08:54:14;;;;;;;17.48;7.75;;;;;;;;;;5088147;28;20052;-70
2022/10/27 08:56:41;;;;;;;15.00;7.57;;;;;;;;;;5106529;27;20052;-70
2022/10/27 08:59:17;;;;;;;14.18;6.85;;;;;;;;;;5093979;28;20681;-69
2022/10/27 09:01:47;;;;;;;11.98;7.82;;;;;;;;;;5113889;27;20461;-69
2022/10/27 09:04:16;;;;;;;11.75;7.43;;;;;;;;;;5105976;27;20040;-69
2022/10/27 09:06:51;;;;;;;16.33;7.32;;;;;;;;;;5115925;27;20054;-69
2022/10/27 09:09:30;;;;;;;15.02;7.38;;;;;;;;;;5119498;27;20055;-69
2022/10/27 09:12:02;;;;;;;11.52;6.72;;;;;;;;;;5107302;28;20082;-69
2022/10/27 09:14:27;;;;;;;10.38;6.38;;;;;;;;;;5113244;27;20032;-68
2022/10/27 09:16:55;;;;;;;11.63;6.57;;;;;;;;;;5111616;28;20069;-69
2022/10/27 09:19:23;;;;;;;14.45;6.55;;;;;;;;;;5118067;27;20231;-69
2022/10/27 09:21:50;;;;;;;14.75;6.88;;;;;;;;;;5112537;27;20051;-69
2022/10/27 09:24:17;;;;;;;8.95;5.50;;;;;;;;;;5108622;27;20048;-68
2022/10/27 09:26:45;;;;;;;9.57;5.72;;;;;;;;;;5107608;28;20046;-70
2022/10/27 09:29:15;;;;;;;10.32;5.65;;;;;;;;;;5110647;28;20078;-68
2022/10/27 09:31:48;;;;;;;10.15;5.47;;;;;;;;;;5117744;27;20051;-69
2022/10/27 09:34:17;;;;;;;7.30;4.60;;;;;;;;;;5107982;28;20044;-69
2022/10/27 09:36:44;;;;;;;9.40;4.82;;;;;;;;;;5113971;27;20039;-70
2022/10/27 09:39:10;;;;;;;6.82;4.43;;;;;;;;;;5109400;28;20046;-69
2022/10/27 09:41:36;;;;;;;9.75;4.32;;;;;;;;;;5116175;27;20040;-71
2022/10/27 09:44:03;;;;;;;7.45;4.40;;;;;;;;;;5105879;28;20421;-69
2022/10/27 09:46:29;;;;;;;8.50;3.75;;;;;;;;;;5106697;28;20052;-69
2022/10/27 09:48:57;;;;;;;6.72;4.00;;;;;;;;;;5115642;27;20097;-69
2022/10/27 09:51:30;;;;;;;7.57;3.63;;;;;;;;;;5109247;27;20056;-69
2022/10/27 09:53:56;;;;;;;;;;;;;;;;;;5106732;27;20057;-71
2022/10/27 09:56:27;;;;;;;6.82;3.50;;;;;;;;;;5099672;28;19928;-69
2022/10/27 09:59:04;;;;;;;11.50;3.60;;;;;;;;;;5108266;28;20690;-69
2022/10/27 10:01:39;;;;;;;8.23;3.88;;;;;;;;;;5115182;27;20039;-68
2022/10/27 10:04:06;;;;;;;9.25;3.58;;;;;;;;;;5083850;27;20054;-68
2022/10/27 10:06:36;;;;;;;7.43;3.60;;;;;;;;;;5108031;27;20056;-70
2022/10/27 10:09:15;;;;;;;8.18;3.22;;;;;;;;;;5108669;27;20120;-70
2022/10/27 10:11:41;;;;;;;8.77;3.13;;;;;;;;;;5113584;27;20056;-68
2022/10/27 10:14:18;;;;;;;7.20;2.83;;;;;;;;;;5107430;28;20174;-69
2022/10/27 10:16:45;;;;;;;10.70;2.90;;;;;;;;;;5108509;27;20044;-70
2022/10/27 10:19:17;;;;;;;9.18;2.60;;;;;;;;;;5107768;27;20036;-69
2022/10/27 10:21:46;;;;;;;8.55;2.30;;;;;;;;;;5112951;27;20135;-69
2022/10/27 10:24:16;;;;;;;9.32;2.45;;;;;;;;;;5097043;27;20044;-69
2022/10/27 10:26:45;;;;;;;7.28;2.03;;;;;;;;;;5097861;28;20048;-70
2022/10/27 10:29:18;;;;;;;6.93;2.45;;;;;;;;;;5091339;28;20096;-69
2022/10/27 10:31:44;;;;;;;8.82;2.33;;;;;;;;;;5112970;27;20492;-69
2022/10/27 10:34:25;;;;;;;5.03;2.00;;;;;;;;;;5116456;27;20041;-68
2022/10/27 10:36:52;;;;;;;6.35;2.10;;;;;;;;;;5106214;28;20409;-70
2022/10/27 10:39:22;;;;;;;6.10;2.20;;;;;;;;;;5104471;27;20036;-68
2022/10/27 10:42:07;;;;;;;6.20;2.08;;;;;;;;;;5099697;28;20040;-71
2022/10/27 10:44:33;;;;;;;3.38;2.00;;;;;;;;;;5119163;27;20047;-70
2022/10/27 10:47:00;;;;;;;6.93;2.03;;;;;;;;;;5108230;27;20143;-69
2022/10/27 10:49:28;;;;;;;5.60;2.10;;;;;;;;;;5108021;28;20075;-71
2022/10/27 10:51:58;;;;;;;5.43;1.80;;;;;;;;;;5100135;28;20095;-70
2022/10/27 10:54:27;;;;;;;6.50;2.00;;;;;;;;;;5107349;27;20096;-69
2022/10/27 10:56:53;;;;;;;6.72;2.15;;;;;;;;;;5106698;28;20036;-70
2022/10/27 10:59:21;;;;;;;4.72;1.67;;;;;;;;;;5118919;28;20047;-69
2022/10/27 11:01:55;;;;;;;4.97;1.90;;;;;;;;;;5119559;27;20081;-69
2022/10/27 11:04:23;;;;;;;5.60;2.17;;;;;;;;;;5103377;28;20043;-69
2022/10/27 11:06:58;;;;;;;3.20;1.70;;;;;;;;;;5118759;28;20054;-70
2022/10/27 11:09:30;;;;;;;6.32;1.80;;;;;;;;;;5120566;28;20055;-70
2022/10/27 11:11:56;;;;;;;4.70;1.48;;;;;;;;;;5112310;28;20490;-68
2022/10/27 11:14:24;;;;;;;5.05;1.65;;;;;;;;;;5102012;28;20086;-68
2022/10/27 11:16:52;;;;;;;4.63;1.65;;;;;;;;;;5104624;28;20066;-69
2022/10/27 11:19:18;;;;;;;6.28;1.60;;;;;;;;;;5100921;28;20639;-69
2022/10/27 11:21:57;;;;;;;4.07;1.60;;;;;;;;;;5105814;28;20073;-68
2022/10/27 11:24:41;;;;;;;5.15;1.50;;;;;;;;;;5110500;28;20035;-69
2022/10/27 11:27:12;;;;;;;5.90;1.60;;;;;;;;;;5108379;28;20048;-69
2022/10/27 11:29:49;;;;;;;7.95;1.73;;;;;;;;;;5115870;27;20052;-68
2022/10/27 11:32:21;;;;;;;3.97;1.55;;;;;;;;;;5119784;27;20122;-70
2022/10/27 11:34:50;;;;;;;4.68;1.48;;;;;;;;;;5100538;28;20069;-68
2022/10/27 11:37:28;;;;;;;6.68;2.10;;;;;;;;;;5112353;28;20130;-68
2022/10/27 11:39:58;;;;;;;4.13;1.60;;;;;;;;;;5103301;28;20846;-69
2022/10/27 11:42:34;;;;;;;3.95;1.70;;;;;;;;;;5116577;27;20043;-69
2022/10/27 11:45:00;;;;;;;7.20;1.85;;;;;;;;;;5115503;27;20100;-68
2022/10/27 11:47:29;;;;;;;4.85;1.58;;;;;;;;;;5112151;27;20039;-68
2022/10/27 11:50:02;;;;;;;3.95;1.90;;;;;;;;;;5107634;27;20064;-69
2022/10/27 11:52:31;;;;;;;3.70;1.75;;;;;;;;;;5110091;27;20492;-68
2022/10/27 11:54:58;;;;;;;7.35;1.80;;;;;;;;;;5111353;28;20067;-68
2022/10/27 11:57:28;;;;;;;4.00;1.80;;;;;;;;;;5118636;27;20036;-69
2022/10/27 11:59:54;;;;;;;3.40;1.60;;;;;;;;;;5091548;28;20054;-69
2022/10/27 12:02:20;;;;;;;4.95;1.75;;;;;;;;;;5112240;27;20043;-69
2022/10/27 12:04:54;;;;;;;10.55;1.80;;;;;;;;;;5109520;28;20079;-69
2022/10/27 12:07:20;;;;;;;3.22;1.50;;;;;;;;;;5114588;27;20036;-70
2022/10/27 12:09:46;;;;;;;6.45;1.90;;;;;;;;;;5120874;27;20047;-69
2022/10/27 12:12:30;;;;;;;6.15;1.95;;;;;;;;;;5110422;27;20047;-69
2022/10/27 12:15:02;;;;;;;5.30;1.80;;;;;;;;;;5109032;27;20083;-69
2022/10/27 12:17:28;;;;;;;4.47;1.60;;;;;;;;;;5115649;27;20505;-70
2022/10/27 12:19:55;;;;;;;7.18;1.75;;;;;;;;;;5107207;27;20046;-69
2022/10/27 12:22:40;;;;;;;6.30;1.63;;;;;;;;;;5105222;28;20044;-68
2022/10/27 12:25:09;;;;;;;3.17;1.50;;;;;;;;;;5101461;28;20395;-68
2022/10/27 12:27:37;;;;;;;12.38;2.10;;;;;;;;;;5127077;27;20532;-68
2022/10/27 12:30:08;;;;;;;5.70;1.25;;;;;;;;;;5119039;27;20107;-69
2022/10/27 12:32:37;;;;;;;4.50;1.58;;;;;;;;;;5106018;27;20075;-69
2022/10/27 12:35:20;;;;;;;4.38;1.50;;;;;;;;;;5093464;28;20052;-69
2022/10/27 12:37:52;;;;;;;3.63;1.50;;;;;;;;;;5120029;27;20046;-70
2022/10/27 12:40:25;;;;;;;4.80;1.60;;;;;;;;;;5117899;27;20032;-68
2022/10/27 12:43:15;;;;;;;2.25;1.30;;;;;;;;;;5103528;27;20051;-68
2022/10/27 12:45:56;;;;;;;5.80;1.60;;;;;;;;;;5105010;27;20122;-68
2022/10/27 12:48:33;;;;;;;7.10;1.40;;;;;;;;;;5111716;27;20408;-68
2022/10/27 12:51:02;;;;;;;6.25;1.40;;;;;;;;;;5118789;27;20044;-69
2022/10/27 12:53:38;;;;;;;8.07;1.45;;;;;;;;;;5114464;27;20043;-69
2022/10/27 12:56:04;;;;;;;4.68;1.20;;;;;;;;;;5113202;27;20044;-69
2022/10/27 12:58:40;;;;;;;5.68;1.40;;;;;;;;;;5102368;27;20049;-69
2022/10/27 13:01:21;;;;;;;5.43;1.60;;;;;;;;;;5117567;27;20569;-69
2022/10/27 13:04:00;;;;;;;7.47;1.50;;;;;;;;;;5107096;27;20572;-69
2022/10/27 13:06:33;;;;;;;3.63;1.50;;;;;;;;;;5091268;28;20040;-69
2022/10/27 13:09:18;;;;;;;5.13;1.48;;;;;;;;;;5120157;27;20047;-69
2022/10/27 13:12:00;;;;;;;4.07;1.50;;;;;;;;;;5109066;28;20130;-69
2022/10/27 13:14:29;;;;;;;8.40;1.75;;;;;;;;;;5117168;27;20043;-69
2022/10/27 13:16:55;;;;;;;6.05;1.48;;;;;;;;;;5111488;27;20043;-69
2022/10/27 13:19:26;;;;;;;6.00;1.65;;;;;;;;;;5106624;27;20632;-69
2022/10/27 13:22:00;;;;;;;5.93;1.52;;;;;;;;;;5085355;27;20489;-69
2022/10/27 13:24:35;;;;;;;8.45;1.48;;;;;;;;;;5108864;27;20062;-68
2022/10/27 13:27:03;;;;;;;7.03;1.75;;;;;;;;;;5107573;28;20048;-69
2022/10/27 13:29:34;;;;;;;4.88;1.63;;;;;;;;;;5104627;27;20050;-69
2022/10/27 13:32:19;;;;;;;3.72;1.20;;;;;;;;;;5098929;27;20826;-69
2022/10/27 13:35:00;;;;;;;5.57;1.58;;;;;;;;;;5108811;27;20112;-68
2022/10/27 13:37:37;;;;;;;6.43;1.50;;;;;;;;;;5097824;28;20055;-69
2022/10/27 13:40:23;;;;;;;5.72;1.58;;;;;;;;;;5103070;27;20048;-68
2022/10/27 13:42:50;;;;;;;5.22;1.20;;;;;;;;;;5106443;27;20055;-69
2022/10/27 13:45:46;;;;;;;6.13;1.27;;;;;;;;;;5112751;27;20130;-68
2022/10/27 13:48:31;;;;;;;2.75;1.15;;;;;;;;;;5117764;27;20061;-68
2022/10/27 13:50:58;;;;;;;2.20;1.17;;;;;;;;;;5117273;27;20071;-68
2022/10/27 13:53:25;;;;;;;5.45;1.50;;;;;;;;;;5096024;27;20048;-68
2022/10/27 13:56:20;;;;;;;7.78;1.52;;;;;;;;;;5102600;27;20382;-70
2022/10/27 13:58:49;;;;;;;5.55;1.40;;;;;;;;;;5119227;27;20055;-69
2022/10/27 14:01:23;;;;;;;12.18;1.50;;;;;;;;;;5101999;27;20088;-69
2022/10/27 14:04:04;;;;;;;4.95;1.20;;;;;;;;;;5100330;28;20139;-69
2022/10/27 14:06:35;;;;;;;5.03;1.27;;;;;;;;;;5108641;27;20047;-68
2022/10/27 14:09:10;;;;;;;3.67;1.30;;;;;;;;;;5105561;27;20052;-69
2022/10/27 14:11:36;;;;;;;5.65;1.38;;;;;;;;;;5109625;27;20067;-69
2022/10/27 14:14:05;;;;;;;8.02;1.40;;;;;;;;;;5107655;27;20472;-68
2022/10/27 14:16:35;;;;;;;3.90;1.30;;;;;;;;;;5102760;27;20097;-69
2022/10/27 14:19:06;;;;;;;7.72;1.27;;;;;;;;;;5104514;28;20097;-69
2022/10/27 14:21:34;;;;;;;5.00;1.42;;;;;;;;;;5108574;27;20093;-69
2022/10/27 14:24:04;;;;;;;4.88;1.20;;;;;;;;;;5111401;27;20054;-68
2022/10/27 14:26:30;;;;;;;5.57;1.60;;;;;;;;;;5109542;27;20405;-68
2022/10/27 14:28:57;;;;;;;6.32;1.35;;;;;;;;;;5104807;27;20052;-68
2022/10/27 14:31:23;;;;;;;7.63;1.33;;;;;;;;;;5107144;28;20040;-69
2022/10/27 14:33:49;;;;;;;5.13;1.58;;;;;;;;;;5111178;27;20082;-69
2022/10/27 14:36:19;;;;;;;5.80;1.40;;;;;;;;;;5110507;27;20054;-68
2022/10/27 14:38:46;;;;;;;5.00;1.40;;;;;;;;;;5098770;27;20131;-68
2022/10/27 14:41:19;;;;;;;3.80;1.48;;;;;;;;;;5104550;27;20039;-69
2022/10/27 14:43:47;;;;;;;10.75;1.73;;;;;;;;;;5105259;27;20086;-69